Time;durP1;ratioP1;P1;durP2;ratioP2;P2;SDS_P1;SDS_P2;PMS_P1;PMS_P2;Temp;Humidity;BMP_temperature;BMP_pressure;BME280_temperature;BME280_humidity;BME280_pressure;Samples;Min_cycle;Max_cycle;Signal;HPM_P1;HPM_P2
2022/04/21 00:01:04;;;;;;;8.98;8.10;;;6.80;99.90;;;;;;5053833;28;20246;-90
2022/04/21 00:03:33;;;;;;;10.52;9.52;;;6.80;99.90;;;;;;5054022;28;20448;-90
2022/04/21 00:06:01;;;;;;;9.05;8.15;;;6.80;99.90;;;;;;5053626;28;20284;-90
2022/04/21 00:08:30;;;;;;;21.85;8.40;;;6.80;99.90;;;;;;5053810;28;20205;-90
2022/04/21 00:11:00;;;;;;;8.45;7.60;;;6.80;99.90;;;;;;5053785;28;20268;-90
2022/04/21 00:13:28;;;;;;;9.43;8.55;;;6.80;99.90;;;;;;5053466;28;20197;-90
2022/04/21 00:15:56;;;;;;;8.73;7.93;;;6.80;99.90;;;;;;5053589;28;20229;-90
2022/04/21 00:18:24;;;;;;;11.20;8.38;;;6.80;99.90;;;;;;5053679;28;20209;-90
2022/04/21 00:20:53;;;;;;;10.05;8.23;;;6.80;99.90;;;;;;5053666;28;20253;-90
2022/04/21 00:23:29;;;;;;;13.15;8.27;;;6.80;99.90;;;;;;5053535;28;20309;-90
2022/04/21 00:26:01;;;;;;;10.05;8.13;;;6.80;99.90;;;;;;5053675;28;20259;-90
2022/04/21 00:28:30;;;;;;;8.15;7.43;;;6.80;99.90;;;;;;5054151;28;20198;-90
2022/04/21 00:30:59;;;;;;;10.30;7.97;;;6.70;99.90;;;;;;5053022;28;20229;-91
2022/04/21 00:33:27;;;;;;;8.13;7.43;;;6.70;99.90;;;;;;5052864;28;20225;-90
2022/04/21 00:35:56;;;;;;;9.38;7.97;;;6.70;99.90;;;;;;5053874;28;20217;-90
2022/04/21 00:38:25;;;;;;;10.20;7.18;;;6.70;99.90;;;;;;5053158;28;20213;-90
2022/04/21 00:40:53;;;;;;;7.40;6.55;;;6.70;99.90;;;;;;5053262;28;20217;-90
2022/04/21 00:43:23;;;;;;;6.57;6.07;;;6.60;99.90;;;;;;5053523;28;20287;-90
2022/04/21 00:45:56;;;;;;;6.00;5.47;;;6.70;99.90;;;;;;5053616;28;20301;-90
2022/04/21 00:48:24;;;;;;;7.45;6.75;;;6.60;99.90;;;;;;5053444;28;20206;-90
2022/04/21 00:50:54;;;;;;;7.53;6.18;;;6.60;99.90;;;;;;5053584;28;20236;-90
2022/04/21 00:53:23;;;;;;;7.75;6.93;;;6.60;99.90;;;;;;5053330;28;20225;-90
2022/04/21 00:55:51;;;;;;;7.07;6.40;;;6.50;99.90;;;;;;5052762;28;20297;-90
2022/04/21 00:58:20;;;;;;;8.57;6.88;;;6.50;99.90;;;;;;5052853;28;20269;-90
2022/04/21 01:00:50;;;;;;;7.90;7.13;;;6.50;99.90;;;;;;5052902;28;20285;-90
2022/04/21 01:03:17;;;;;;;6.65;6.10;;;6.50;99.90;;;;;;5053270;28;20208;-90
2022/04/21 01:05:46;;;;;;;7.10;6.53;;;6.50;99.90;;;;;;5053052;28;20232;-90
2022/04/21 01:08:14;;;;;;;6.70;6.18;;;6.50;99.90;;;;;;5052990;28;20214;-90
2022/04/21 01:10:43;;;;;;;6.90;6.30;;;6.40;99.90;;;;;;5052603;28;20241;-90
2022/04/21 01:13:13;;;;;;;6.72;6.18;;;6.40;99.90;;;;;;5053085;28;20388;-90
2022/04/21 01:15:42;;;;;;;7.40;5.63;;;6.40;99.90;;;;;;5053434;28;20225;-90
2022/04/21 01:18:11;;;;;;;6.45;5.85;;;6.40;99.90;;;;;;5053136;28;20313;-89
2022/04/21 01:20:41;;;;;;;6.22;5.68;;;6.40;99.90;;;;;;5052963;28;20198;-90
2022/04/21 01:23:10;;;;;;;7.25;6.47;;;6.30;99.90;;;;;;5053112;28;20232;-90
2022/04/21 01:25:40;;;;;;;6.22;5.68;;;6.30;99.90;;;;;;5052702;28;20301;-91
2022/04/21 01:28:10;;;;;;;9.13;5.95;;;6.30;99.90;;;;;;5053300;28;20198;-90
2022/04/21 01:30:38;;;;;;;7.53;6.65;;;6.20;99.90;;;;;;5057958;28;20317;-89
2022/04/21 01:33:07;;;;;;;6.63;6.03;;;6.20;99.90;;;;;;5069311;28;20202;-90
2022/04/21 01:35:36;;;;;;;6.97;6.38;;;6.10;99.90;;;;;;5068432;28;20209;-90
2022/04/21 01:41:10;;;;;;;6.13;5.55;;;6.10;99.90;;;;;;5054304;28;20260;-90
2022/04/21 01:43:39;;;;;;;8.13;6.72;;;6.10;99.90;;;;;;5068628;28;20209;-90
2022/04/21 01:46:09;;;;;;;9.15;7.40;;;6.10;99.90;;;;;;5071281;28;20217;-90
2022/04/21 01:48:38;;;;;;;8.93;8.00;;;6.10;99.90;;;;;;5058620;28;20255;-90
2022/04/21 01:51:06;;;;;;;9.98;7.88;;;6.20;99.90;;;;;;5056866;28;20271;-90
2022/04/21 01:53:36;;;;;;;7.18;6.50;;;6.20;99.90;;;;;;5057119;28;20221;-91
2022/04/21 01:56:05;;;;;;;8.70;7.90;;;6.20;99.90;;;;;;5056832;28;20232;-90
2022/04/21 01:58:34;;;;;;;8.90;8.05;;;6.20;99.90;;;;;;5056793;28;20235;-90
2022/04/21 02:01:02;;;;;;;9.27;7.68;;;6.30;99.90;;;;;;5056464;28;20313;-90
2022/04/21 02:03:32;;;;;;;8.98;8.13;;;6.30;99.90;;;;;;5057040;28;20243;-90
2022/04/21 02:06:01;;;;;;;9.60;8.60;;;6.30;99.90;;;;;;5057033;28;20205;-90
2022/04/21 02:08:29;;;;;;;11.98;8.73;;;6.40;99.90;;;;;;5056990;28;20289;-90
2022/04/21 02:10:59;;;;;;;8.93;8.10;;;6.40;99.90;;;;;;5057945;28;20260;-90
2022/04/21 02:13:28;;;;;;;8.25;7.45;;;6.40;99.90;;;;;;5070569;28;20221;-90
2022/04/21 02:15:56;;;;;;;8.82;8.07;;;6.40;99.90;;;;;;5070803;28;20210;-90
2022/04/21 02:18:24;;;;;;;9.20;8.25;;;6.40;99.90;;;;;;5061292;28;20201;-90
2022/04/21 02:20:53;;;;;;;8.20;7.43;;;6.40;99.90;;;;;;5059990;28;20226;-90
2022/04/21 02:23:22;;;;;;;11.02;9.00;;;6.40;99.90;;;;;;5068778;28;20267;-90
2022/04/21 02:25:50;;;;;;;24.83;7.95;;;6.30;99.90;;;;;;5064633;28;20228;-90
2022/04/21 02:28:22;;;;;;;8.88;7.97;;;6.40;99.90;;;;;;5056601;28;20225;-90
2022/04/21 02:30:50;;;;;;;7.95;7.25;;;6.30;99.90;;;;;;5056158;28;20245;-90
2022/04/21 02:33:19;;;;;;;6.90;6.40;;;6.30;99.90;;;;;;5057043;28;20288;-91
2022/04/21 02:35:47;;;;;;;7.95;7.22;;;6.30;99.90;;;;;;5055834;28;20237;-91
2022/04/21 02:38:16;;;;;;;9.40;8.50;;;6.20;99.90;;;;;;5056053;28;20202;-90
2022/04/21 02:40:45;;;;;;;9.40;8.50;;;6.20;99.90;;;;;;5055703;28;20269;-91
2022/04/21 02:43:13;;;;;;;9.02;7.50;;;6.20;99.90;;;;;;5056137;28;20269;-90
2022/04/21 02:45:44;;;;;;;7.60;7.00;;;6.10;99.90;;;;;;5056184;28;20301;-90
2022/04/21 02:48:12;;;;;;;8.98;8.02;;;6.10;99.90;;;;;;5055580;28;20229;-90
2022/04/21 02:50:41;;;;;;;9.90;8.38;;;6.10;99.90;;;;;;5055097;28;20240;-90
2022/04/21 02:53:10;;;;;;;9.85;8.82;;;6.10;99.90;;;;;;5054890;28;20289;-90
2022/04/21 02:58:24;;;;;;;9.07;8.18;;;6.10;99.90;;;;;;5055352;28;20267;-90
2022/04/21 03:00:54;;;;;;;9.23;8.32;;;6.10;99.90;;;;;;5055131;28;20217;-91
2022/04/21 03:03:23;;;;;;;9.85;8.77;;;6.10;99.90;;;;;;5055483;28;20224;-90
2022/04/21 03:05:51;;;;;;;9.18;8.32;;;6.10;99.90;;;;;;5055508;28;20209;-90
2022/04/21 03:08:19;;;;;;;9.43;8.48;;;6.10;99.90;;;;;;5055624;28;20267;-90
2022/04/21 03:10:48;;;;;;;8.98;8.10;;;6.00;99.90;;;;;;5055233;28;20259;-90
2022/04/21 03:13:16;;;;;;;8.68;7.85;;;6.00;99.90;;;;;;5055053;28;20229;-90
2022/04/21 03:15:44;;;;;;;9.43;8.57;;;5.90;99.90;;;;;;5054909;28;20305;-90
2022/04/21 03:18:14;;;;;;;10.38;8.98;;;5.90;99.90;;;;;;5054540;28;20224;-90
2022/04/21 03:26:17;;;;;;;10.60;9.52;;;5.90;99.90;;;;;;5055120;28;20240;-90
2022/04/21 03:28:45;;;;;;;8.65;7.72;;;5.90;99.90;;;;;;5055210;28;20209;-91
2022/04/21 03:31:14;;;;;;;9.55;8.65;;;5.90;99.90;;;;;;5054913;28;20259;-90
2022/04/21 03:33:44;;;;;;;8.65;7.65;;;5.90;99.90;;;;;;5054884;28;20209;-90
2022/04/21 03:36:13;;;;;;;12.52;8.90;;;5.90;99.90;;;;;;5054574;28;20234;-90
2022/04/21 03:38:42;;;;;;;7.68;7.05;;;5.80;99.90;;;;;;5055119;28;20205;-90
2022/04/21 03:41:10;;;;;;;8.15;7.55;;;5.80;99.90;;;;;;5054923;28;20225;-90
2022/04/21 03:43:39;;;;;;;9.65;8.77;;;5.70;99.90;;;;;;5054427;28;20202;-91
2022/04/21 03:46:07;;;;;;;8.13;7.35;;;5.70;99.90;;;;;;5054693;28;20202;-91
2022/04/21 03:48:36;;;;;;;9.45;8.63;;;5.70;99.90;;;;;;5054654;28;20213;-90
2022/04/21 03:51:06;;;;;;;9.32;8.43;;;5.60;99.90;;;;;;5054575;28;20230;-91
2022/04/21 03:53:35;;;;;;;10.35;9.25;;;5.60;99.90;;;;;;5054193;28;20225;-90
2022/04/21 03:56:03;;;;;;;8.73;7.93;;;5.50;99.90;;;;;;5054762;28;20229;-90
2022/04/21 03:58:33;;;;;;;9.48;8.38;;;5.50;99.90;;;;;;5054306;28;20209;-91
2022/04/21 04:01:01;;;;;;;10.15;9.25;;;5.50;99.90;;;;;;5054146;28;20226;-90
2022/04/21 04:03:30;;;;;;;8.75;7.95;;;5.50;99.90;;;;;;5054157;28;20292;-90
2022/04/21 04:05:58;;;;;;;9.57;8.07;;;5.50;99.90;;;;;;5054084;28;20225;-90
2022/04/21 04:11:13;;;;;;;9.00;8.10;;;5.50;99.90;;;;;;5053838;28;20237;-90
2022/04/21 04:13:42;;;;;;;9.60;8.80;;;5.50;99.90;;;;;;5053800;28;20314;-90
2022/04/21 04:16:10;;;;;;;10.18;9.20;;;5.50;99.90;;;;;;5053704;28;20238;-90
2022/04/21 04:18:38;;;;;;;9.75;8.93;;;5.50;99.90;;;;;;5053781;28;20205;-90
2022/04/21 04:21:08;;;;;;;7.80;7.10;;;5.40;99.90;;;;;;5053383;28;20245;-90
2022/04/21 04:23:38;;;;;;;8.75;8.00;;;5.40;99.90;;;;;;5053649;28;20225;-90
2022/04/21 04:26:07;;;;;;;11.85;9.93;;;5.50;99.90;;;;;;5053745;28;20210;-90
2022/04/21 04:28:36;;;;;;;8.77;7.95;;;5.40;99.90;;;;;;5053762;28;20224;-90
2022/04/21 04:31:05;;;;;;;9.85;8.57;;;5.40;99.90;;;;;;5053324;28;20245;-90
2022/04/21 04:33:33;;;;;;;10.55;9.48;;;5.50;99.90;;;;;;5053102;28;20222;-90
2022/04/21 04:36:02;;;;;;;9.25;8.38;;;5.50;99.90;;;;;;5053090;28;20210;-91
2022/04/21 04:38:30;;;;;;;11.90;10.30;;;5.40;99.90;;;;;;5053905;28;20232;-90
2022/04/21 04:42:16;;;;;;;9.90;9.02;;;5.50;99.90;;;;;;5053182;28;20221;-90
2022/04/21 04:43:48;;;;;;;11.60;10.43;;;5.50;99.90;;;;;;5053535;28;20221;-90
2022/04/21 04:49:02;;;;;;;11.98;10.02;;;5.50;99.90;;;;;;5053128;28;20228;-90
2022/04/21 04:51:31;;;;;;;11.07;9.95;;;5.50;99.90;;;;;;5053371;28;20264;-90
2022/04/21 04:53:59;;;;;;;9.75;8.80;;;5.40;99.90;;;;;;5052834;28;20253;-90
2022/04/21 04:56:29;;;;;;;10.82;9.77;;;5.50;99.90;;;;;;5053211;28;20206;-90
2022/04/21 04:58:58;;;;;;;12.57;9.32;;;5.40;99.90;;;;;;5052852;28;20269;-90
2022/04/21 05:01:30;;;;;;;10.77;9.73;;;5.50;99.90;;;;;;5052769;28;20233;-91
2022/04/21 05:04:04;;;;;;;11.88;10.65;;;5.50;99.90;;;;;;5053161;28;20252;-90
2022/04/21 05:06:36;;;;;;;9.88;8.90;;;5.50;99.90;;;;;;5053080;28;20293;-90
2022/04/21 05:09:05;;;;;;;10.93;9.85;;;5.50;99.90;;;;;;5053003;28;20292;-90
2022/04/21 05:11:35;;;;;;;10.45;9.43;;;5.50;99.90;;;;;;5052380;28;20291;-90
2022/04/21 05:14:04;;;;;;;10.80;9.50;;;5.40;99.90;;;;;;5052722;28;20252;-90
2022/04/21 05:16:33;;;;;;;10.02;9.10;;;5.40;99.90;;;;;;5052884;28;20252;-90
2022/04/21 05:19:02;;;;;;;11.48;9.75;;;5.30;99.90;;;;;;5052741;28;20211;-90
2022/04/21 05:21:31;;;;;;;9.98;9.05;;;5.30;99.90;;;;;;5052451;28;20250;-90
2022/04/21 05:24:00;;;;;;;9.82;8.93;;;5.30;99.90;;;;;;5052646;28;20273;-90
2022/04/21 05:26:30;;;;;;;10.27;9.27;;;5.30;99.90;;;;;;5052924;28;20289;-90
2022/04/21 05:30:55;;;;;;;9.88;9.07;;;5.40;99.90;;;;;;5052854;28;20244;-90
2022/04/21 05:31:54;;;;;;;13.05;10.57;;;5.50;99.90;;;;;;5052461;28;20229;-89
2022/04/21 05:34:23;;;;;;;11.35;10.25;;;5.60;99.90;;;;;;5052293;28;20225;-90
2022/04/21 05:36:52;;;;;;;14.90;12.25;;;5.70;99.90;;;;;;5052745;28;20232;-90
2022/04/21 05:39:22;;;;;;;12.98;11.32;;;5.80;99.90;;;;;;5052678;28;20236;-90
2022/04/21 05:41:53;;;;;;;12.35;11.10;;;5.90;99.90;;;;;;5052561;28;20245;-90
2022/04/21 05:44:24;;;;;;;17.88;11.50;;;6.00;99.90;;;;;;5052744;28;20201;-89
2022/04/21 05:46:53;;;;;;;12.30;11.13;;;6.00;99.90;;;;;;5052448;28;20206;-90
2022/04/21 05:49:22;;;;;;;13.27;11.75;;;6.20;99.90;;;;;;5052359;28;20291;-90
2022/04/21 05:51:53;;;;;;;14.43;12.52;;;6.20;99.90;;;;;;5052281;28;20272;-90
2022/04/21 05:54:22;;;;;;;16.08;12.25;;;6.30;99.90;;;;;;5052158;28;20278;-90
2022/04/21 05:56:51;;;;;;;14.05;12.63;;;6.50;99.90;;;;;;5052773;28;20209;-90
2022/04/21 05:59:19;;;;;;;14.55;13.02;;;6.50;99.90;;;;;;5052906;28;20206;-90
2022/04/21 06:01:49;;;;;;;13.13;11.85;;;6.70;99.90;;;;;;5052543;28;20226;-90
2022/04/21 06:04:21;;;;;;;14.45;11.48;;;6.70;99.90;;;;;;5052310;28;20198;-90
2022/04/21 06:06:49;;;;;;;13.63;12.32;;;6.80;99.90;;;;;;5052408;28;20209;-90
2022/04/21 06:09:19;;;;;;;14.02;12.43;;;6.90;99.90;;;;;;5052726;28;20212;-90
2022/04/21 06:11:49;;;;;;;14.48;11.95;;;7.00;99.90;;;;;;5052317;28;20264;-90
2022/04/21 06:14:17;;;;;;;12.98;11.75;;;7.00;99.90;;;;;;5061026;28;20225;-89
2022/04/21 06:16:46;;;;;;;15.27;11.95;;;7.10;99.90;;;;;;5066639;28;20205;-90
2022/04/21 06:19:15;;;;;;;15.20;13.70;;;7.20;99.90;;;;;;5065623;28;20228;-90
2022/04/21 06:21:44;;;;;;;15.13;13.55;;;7.20;99.90;;;;;;5053412;28;20314;-89
2022/04/21 06:24:12;;;;;;;14.68;12.25;;;7.30;99.90;;;;;;5060022;28;20225;-90
2022/04/21 06:26:42;;;;;;;13.27;11.88;;;7.40;99.90;;;;;;5065140;28;20217;-91
2022/04/21 06:29:11;;;;;;;11.82;10.70;;;7.40;99.90;;;;;;5057809;28;20263;-90
2022/04/21 06:31:39;;;;;;;13.00;11.40;;;7.50;99.90;;;;;;5053044;28;20344;-90
2022/04/21 06:34:16;;;;;;;12.20;10.90;;;7.60;99.90;;;;;;5055637;28;20222;-90
2022/04/21 06:36:50;;;;;;;18.52;11.63;;;7.70;99.90;;;;;;5056041;28;20205;-90
2022/04/21 06:39:18;;;;;;;10.88;9.80;;;7.70;99.90;;;;;;5056285;28;20197;-90
2022/04/21 06:41:47;;;;;;;13.57;11.25;;;7.80;99.90;;;;;;5055495;28;20225;-91
2022/04/21 06:49:46;;;;;;;12.35;11.13;;;8.00;99.90;;;;;;5055815;28;20302;-89
2022/04/21 06:52:16;;;;;;;11.68;10.57;;;8.00;99.90;;;;;;5055275;28;20290;-89
2022/04/21 06:54:45;;;;;;;13.55;12.15;;;8.20;99.90;;;;;;5054412;28;20307;-88
2022/04/21 06:57:14;;;;;;;12.57;11.40;;;8.20;99.90;;;;;;5056765;28;20287;-87
2022/04/21 06:59:42;;;;;;;14.38;11.90;;;8.30;99.90;;;;;;5075234;28;20255;-88
2022/04/21 07:02:12;;;;;;;12.70;11.00;;;8.40;99.90;;;;;;5056229;28;20221;-88
2022/04/21 07:04:48;;;;;;;12.77;11.52;;;8.40;99.90;;;;;;5072662;28;20193;-86
2022/04/21 07:07:18;;;;;;;12.52;11.10;;;8.50;99.90;;;;;;5075278;28;20287;-89
2022/04/21 07:09:47;;;;;;;14.52;11.63;;;8.70;99.90;;;;;;5075318;28;20229;-88
2022/04/21 07:12:17;;;;;;;13.23;11.18;;;8.80;99.90;;;;;;5061185;28;20299;-88
2022/04/21 07:14:45;;;;;;;12.10;10.63;;;8.90;99.90;;;;;;5054824;28;20225;-90
2022/04/21 07:17:14;;;;;;;14.10;11.93;;;9.10;99.90;;;;;;5054857;28;20226;-89
2022/04/21 07:19:42;;;;;;;12.00;10.02;;;9.20;99.90;;;;;;5062464;28;20196;-89
2022/04/21 07:22:19;;;;;;;16.92;11.55;;;9.40;99.90;;;;;;5073860;28;20233;-88
2022/04/21 07:24:47;;;;;;;16.88;10.02;;;9.60;99.90;;;;;;5057834;28;20194;-88
2022/04/21 07:27:16;;;;;;;13.18;11.75;;;9.80;99.90;;;;;;5053360;28;20198;-89
2022/04/21 07:29:44;;;;;;;14.18;11.23;;;10.00;99.90;;;;;;5054120;28;20202;-89
2022/04/21 07:32:17;;;;;;;10.98;9.98;;;10.20;99.90;;;;;;5053700;28;20224;-88
2022/04/21 07:34:47;;;;;;;12.10;10.85;;;10.40;99.90;;;;;;5054052;28;20214;-90
2022/04/21 07:37:16;;;;;;;15.65;11.43;;;10.50;99.90;;;;;;5053801;28;20205;-90
2022/04/21 07:39:46;;;;;;;13.20;11.82;;;10.70;99.90;;;;;;5053549;28;20201;-88
2022/04/21 07:42:15;;;;;;;12.13;10.88;;;10.80;99.90;;;;;;5053604;28;20283;-89
2022/04/21 07:44:43;;;;;;;15.43;12.52;;;10.90;99.90;;;;;;5061877;28;20251;-88
2022/04/21 07:47:11;;;;;;;12.88;11.68;;;11.10;99.90;;;;;;5069487;28;20254;-88
2022/04/21 07:49:46;;;;;;;13.13;11.82;;;11.20;99.90;;;;;;5053895;28;20201;-88
2022/04/21 07:55:16;;;;;;;17.40;10.80;;;11.70;99.90;;;;;;5050156;28;20256;-86
2022/04/21 07:57:53;;;;;;;13.63;11.82;;;11.90;99.90;;;;;;5053814;28;20229;-86
2022/04/21 08:00:24;;;;;;;14.52;13.13;;;12.20;99.90;;;;;;5053025;28;20301;-86
2022/04/21 08:02:59;;;;;;;12.07;10.90;;;13.10;99.90;;;;;;5054266;28;20218;-89
2022/04/21 08:05:29;;;;;;;11.75;10.20;;;14.40;99.90;;;;;;5053748;28;20296;-86
2022/04/21 08:07:58;;;;;;;10.90;9.88;;;16.20;99.90;;;;;;5069080;28;20201;-85
2022/04/21 08:10:29;;;;;;;12.65;10.57;;;17.70;97.40;;;;;;5053506;28;20232;-85
2022/04/21 08:12:59;;;;;;;10.68;9.52;;;19.00;92.10;;;;;;5053467;28;20213;-86
2022/04/21 08:15:31;;;;;;;12.27;11.00;;;20.40;86.80;;;;;;5053371;28;20225;-86
2022/04/21 08:18:01;;;;;;;11.10;10.05;;;21.90;77.90;;;;;;5053137;28;20210;-83
2022/04/21 08:20:32;;;;;;;10.52;9.57;;;22.70;75.70;;;;;;5071323;28;20201;-83
2022/04/21 08:23:01;;;;;;;14.82;13.32;;;23.40;72.40;;;;;;5073535;28;20236;-83
2022/04/21 08:34:16;;;;;;;14.15;10.85;;;24.40;61.20;;;;;;5053337;28;20222;-85
2022/04/21 08:36:51;;;;;;;18.08;14.30;;;24.80;59.80;;;;;;5052608;28;20272;-84
2022/04/21 08:39:20;;;;;;;13.18;11.20;;;25.10;58.50;;;;;;5052890;28;20217;-81
2022/04/21 08:41:55;;;;;;;11.90;10.88;;;25.60;57.30;;;;;;5052785;28;20242;-80
2022/04/21 08:44:25;;;;;;;12.43;11.23;;;26.00;55.50;;;;;;5053124;28;20289;-79
2022/04/21 08:46:59;;;;;;;12.13;10.90;;;25.10;61.20;;;;;;5053329;28;20211;-79
2022/04/21 08:49:33;;;;;;;10.27;9.38;;;25.20;58.40;;;;;;5052919;28;20201;-79
2022/04/21 08:52:02;;;;;;;13.15;10.57;;;25.60;57.40;;;;;;5052818;28;20309;-80
2022/04/21 08:54:32;;;;;;;12.90;9.95;;;25.80;56.40;;;;;;5051602;28;20229;-79
2022/04/21 08:57:06;;;;;;;10.35;9.43;;;25.80;55.50;;;;;;5052886;28;20200;-79
2022/04/21 08:59:38;;;;;;;10.68;9.77;;;25.70;54.40;;;;;;5053185;28;20424;-79
2022/04/21 09:02:06;;;;;;;9.82;8.93;;;25.10;54.20;;;;;;5052835;28;20313;-78
2022/04/21 09:04:36;;;;;;;10.15;9.15;;;24.70;54.00;;;;;;5052662;28;20271;-79
2022/04/21 09:07:16;;;;;;;13.20;11.32;;;24.40;56.80;;;;;;5052504;28;20293;-79
2022/04/21 09:10:03;;;;;;;12.15;11.00;;;24.70;60.00;;;;;;5052571;28;20327;-79
2022/04/21 09:12:34;;;;;;;10.05;9.23;;;25.90;56.70;;;;;;5051927;28;20233;-80
2022/04/21 09:15:10;;;;;;;13.35;12.23;;;26.40;55.30;;;;;;5052883;28;20228;-79
2022/04/21 09:17:40;;;;;;;12.23;9.48;;;26.40;53.80;;;;;;5052491;28;20209;-79
2022/04/21 09:20:11;;;;;;;12.48;11.30;;;26.70;53.50;;;;;;5052521;28;20229;-80
2022/04/21 09:22:52;;;;;;;11.60;10.45;;;26.90;52.50;;;;;;5052595;28;20316;-80
2022/04/21 09:26:21;;;;;;;11.95;10.77;;;26.60;54.20;;;;;;5052457;28;20201;-79
2022/04/21 09:29:00;;;;;;;18.70;14.20;;;26.30;53.10;;;;;;5050178;28;20259;-79
2022/04/21 09:31:43;;;;;;;10.02;9.10;;;26.00;52.40;;;;;;5052410;28;20279;-79
2022/04/21 09:37:29;;;;;;;11.80;10.65;;;25.50;56.50;;;;;;5051434;28;20220;-80
2022/04/21 09:40:04;;;;;;;11.02;9.98;;;25.60;51.20;;;;;;5052809;28;20205;-80
2022/04/21 09:42:33;;;;;;;12.30;11.07;;;25.30;53.10;;;;;;5052424;28;20233;-79
2022/04/21 09:48:43;;;;;;;10.95;9.93;;;24.70;52.90;;;;;;5052608;28;20293;-80
2022/04/21 09:51:45;;;;;;;11.60;8.43;;;24.70;54.90;;;;;;5051469;28;20331;-80
2022/04/21 09:54:16;;;;;;;9.23;8.43;;;24.80;54.90;;;;;;5052557;28;20229;-80
2022/04/21 09:56:45;;;;;;;9.40;8.43;;;24.70;52.10;;;;;;5051881;28;20264;-79
2022/04/21 09:59:14;;;;;;;12.07;10.98;;;25.00;54.50;;;;;;5052390;28;20228;-79
2022/04/21 10:01:44;;;;;;;10.02;8.65;;;24.90;52.50;;;;;;5052178;28;20230;-79
2022/04/21 10:07:53;;;;;;;19.88;8.10;;;24.20;56.00;;;;;;5016436;28;20230;-79
2022/04/21 10:11:02;;;;;;;8.63;7.72;;;24.20;54.20;;;;;;5056412;28;20202;-80
2022/04/21 10:14:49;;;;;;;10.52;9.45;;;24.50;55.50;;;;;;5053832;28;20273;-80
2022/04/21 10:20:52;;;;;;;11.38;8.13;;;24.10;51.40;;;;;;5076234;22;20281;-81
2022/04/21 10:30:30;;;;;;;8.60;7.80;;;23.70;55.60;;;;;;4866589;29;20343;-80
2022/04/21 10:33:07;;;;;;;12.43;7.70;;;24.00;58.10;;;;;;4879934;29;20368;-80
2022/04/21 10:36:18;;;;;;;8.25;7.55;;;24.50;55.70;;;;;;4905537;29;20224;-80
2022/04/21 10:46:29;;;;;;;7.95;7.22;;;24.50;55.50;;;;;;4884056;29;20255;-80
2022/04/21 10:50:04;;;;;;;7.85;6.90;;;24.80;55.20;;;;;;4954937;28;20216;-80
2022/04/21 10:59:02;;;;;;;7.20;6.50;;;23.50;52.20;;;;;;4955298;28;20212;-80
2022/04/21 11:05:43;;;;;;;9.63;8.70;;;23.00;51.20;;;;;;5005398;28;20206;-80
2022/04/21 11:11:45;;;;;;;7.35;6.75;;;23.40;55.00;;;;;;5013670;28;20318;-80
2022/04/21 11:14:48;;;;;;;8.00;7.20;;;23.90;55.30;;;;;;5014950;28;20245;-81
2022/04/21 11:18:01;;;;;;;8.65;7.82;;;24.10;55.70;;;;;;5014357;28;20202;-80
2022/04/21 11:23:02;;;;;;;8.10;7.40;;;24.00;53.40;;;;;;5077215;22;20245;-81
2022/04/21 11:25:41;;;;;;;9.90;6.97;;;24.10;53.90;;;;;;5054818;28;20225;-80
2022/04/21 11:28:13;;;;;;;6.65;5.90;;;24.10;52.90;;;;;;5054906;28;20240;-80
2022/04/21 11:30:43;;;;;;;5.70;5.15;;;24.30;53.90;;;;;;5054274;28;20230;-80
2022/04/21 11:33:14;;;;;;;6.18;5.15;;;24.30;51.50;;;;;;5054150;28;20232;-80
2022/04/21 11:35:47;;;;;;;5.03;4.63;;;23.90;51.60;;;;;;5054576;28;20312;-81
2022/04/21 11:38:22;;;;;;;4.82;4.28;;;24.10;52.10;;;;;;5054357;28;20205;-80
2022/04/21 11:40:56;;;;;;;14.38;4.60;;;24.00;49.90;;;;;;5053878;28;20206;-81
2022/04/21 11:43:25;;;;;;;4.45;3.75;;;24.40;51.90;;;;;;5054397;28;20292;-80
2022/04/21 11:46:01;;;;;;;3.60;3.40;;;24.60;49.70;;;;;;5054224;28;20225;-80
2022/04/21 11:48:33;;;;;;;5.15;4.20;;;24.50;51.00;;;;;;5054314;28;20321;-80
2022/04/21 11:51:05;;;;;;;4.55;4.20;;;24.40;49.50;;;;;;5054237;28;20234;-80
2022/04/21 11:53:36;;;;;;;3.53;3.17;;;24.00;49.10;;;;;;5054246;28;20205;-80
2022/04/21 11:56:11;;;;;;;4.28;3.85;;;23.90;49.80;;;;;;5053464;28;20221;-80
2022/04/21 11:58:43;;;;;;;3.97;3.67;;;24.00;49.50;;;;;;5054111;28;20284;-80
2022/04/21 12:06:56;;;;;;;3.95;3.65;;;23.10;50.70;;;;;;5053708;28;20213;-80
2022/04/21 12:09:29;;;;;;;5.47;3.90;;;22.50;51.20;;;;;;5053576;28;20209;-80
2022/04/21 12:12:08;;;;;;;5.07;4.60;;;22.70;52.50;;;;;;5053447;28;20221;-80
2022/04/21 12:14:41;;;;;;;4.53;4.13;;;22.90;53.00;;;;;;5053684;28;20236;-80
2022/04/21 12:17:15;;;;;;;6.13;4.43;;;23.00;50.50;;;;;;5053454;28;20222;-80
2022/04/21 12:19:49;;;;;;;3.92;3.60;;;23.00;52.50;;;;;;5053526;28;20241;-83
2022/04/21 12:22:20;;;;;;;3.88;3.55;;;23.20;54.40;;;;;;5053222;28;20243;-80
2022/04/21 12:24:53;;;;;;;4.13;3.72;;;23.20;52.50;;;;;;5053637;28;20213;-80
2022/04/21 12:27:34;;;;;;;3.95;3.58;;;23.20;52.60;;;;;;5053094;28;20290;-82
2022/04/21 12:30:12;;;;;;;3.33;3.03;;;23.40;52.70;;;;;;5053667;28;20225;-82
2022/04/21 12:32:49;;;;;;;8.07;4.47;;;23.50;51.00;;;;;;5053159;28;20237;-82
2022/04/21 12:35:33;;;;;;;4.35;3.95;;;23.50;52.40;;;;;;5053330;28;20209;-83
2022/04/21 12:40:52;;;;;;;2.97;2.78;;;23.30;51.80;;;;;;5053366;28;20248;-82
2022/04/21 12:43:24;;;;;;;3.90;3.53;;;23.30;51.70;;;;;;5052999;28;20263;-80
2022/04/21 12:45:53;;;;;;;3.50;3.20;;;23.40;51.20;;;;;;5052897;28;20202;-80
2022/04/21 12:48:22;;;;;;;12.73;3.88;;;23.40;51.50;;;;;;5052841;28;20201;-80
2022/04/21 12:50:51;;;;;;;3.25;3.05;;;23.30;50.80;;;;;;5052883;28;20216;-80
2022/04/21 12:53:27;;;;;;;3.70;3.38;;;22.90;51.10;;;;;;5052943;28;20215;-80
2022/04/21 12:55:56;;;;;;;3.40;3.10;;;22.90;51.80;;;;;;5053034;28;20292;-82
2022/04/21 12:58:32;;;;;;;3.05;2.85;;;22.80;51.20;;;;;;5052549;28;20201;-80
2022/04/21 13:01:05;;;;;;;3.20;3.00;;;22.70;52.60;;;;;;5052711;28;20225;-82
2022/04/21 13:03:34;;;;;;;4.15;3.75;;;22.80;51.10;;;;;;5052956;28;20289;-82
2022/04/21 13:06:02;;;;;;;3.65;3.22;;;22.80;52.00;;;;;;5052669;28;20209;-82
2022/04/21 13:08:30;;;;;;;3.30;3.00;;;22.80;51.60;;;;;;5052775;28;20288;-82
2022/04/21 13:10:59;;;;;;;3.60;2.90;;;22.30;51.40;;;;;;5052291;28;20229;-83
2022/04/21 13:13:28;;;;;;;2.85;2.65;;;22.50;50.60;;;;;;5052864;28;20215;-82
2022/04/21 13:15:57;;;;;;;2.83;2.63;;;22.60;51.60;;;;;;5052925;28;20289;-82
2022/04/21 13:18:29;;;;;;;3.85;3.45;;;22.50;51.60;;;;;;5052630;28;20240;-82
2022/04/21 13:23:43;;;;;;;3.28;2.55;;;22.40;51.30;;;;;;5052210;28;20202;-80
2022/04/21 13:26:11;;;;;;;2.90;2.55;;;22.50;52.40;;;;;;5052277;28;20293;-80
2022/04/21 13:28:54;;;;;;;2.55;2.38;;;22.30;50.80;;;;;;5052347;28;20234;-80
2022/04/21 13:34:10;;;;;;;2.42;2.28;;;21.80;51.80;;;;;;5052392;28;20297;-80
2022/04/21 13:36:39;;;;;;;5.22;2.50;;;21.70;49.80;;;;;;5052605;28;20260;-80
2022/04/21 13:39:07;;;;;;;2.38;2.05;;;21.40;49.20;;;;;;5052595;28;20351;-80
2022/04/21 13:41:35;;;;;;;2.45;2.25;;;21.40;50.90;;;;;;5051570;28;20316;-80
2022/04/21 13:44:04;;;;;;;3.05;2.75;;;21.30;51.20;;;;;;5052201;28;20205;-80
2022/04/21 13:46:55;;;;;;;3.67;3.03;;;21.20;52.60;;;;;;5052548;28;20202;-80
2022/04/21 13:49:24;;;;;;;2.72;2.28;;;21.30;51.00;;;;;;5052253;28;20286;-80
2022/04/21 13:51:52;;;;;;;2.65;2.10;;;21.20;52.30;;;;;;5052026;28;20234;-83
2022/04/21 13:54:21;;;;;;;2.50;2.30;;;21.30;52.60;;;;;;5051681;28;20206;-83
2022/04/21 13:56:50;;;;;;;2.28;2.03;;;21.30;51.50;;;;;;5051259;28;20233;-82
2022/04/21 13:59:18;;;;;;;3.92;2.70;;;21.10;51.30;;;;;;5052526;28;20205;-82
2022/04/21 14:01:46;;;;;;;2.47;2.25;;;21.00;52.80;;;;;;5050351;28;20225;-83
2022/04/21 14:04:16;;;;;;;2.28;2.15;;;20.60;51.80;;;;;;5051828;28;20214;-83
2022/04/21 14:06:46;;;;;;;2.72;2.50;;;20.80;52.40;;;;;;5051914;28;20292;-83
2022/04/21 14:09:14;;;;;;;3.13;2.72;;;20.90;52.60;;;;;;5051796;28;20263;-82
2022/04/21 14:11:42;;;;;;;2.72;2.10;;;21.10;52.30;;;;;;5051716;28;20321;-85
2022/04/21 14:14:11;;;;;;;2.78;2.53;;;21.00;51.50;;;;;;5051904;28;20289;-85
2022/04/21 14:16:39;;;;;;;2.00;1.90;;;20.90;51.80;;;;;;5051650;28;20291;-84
2022/04/21 14:19:08;;;;;;;2.22;2.08;;;20.70;52.60;;;;;;5051928;28;20216;-86
2022/04/21 14:21:38;;;;;;;2.83;2.58;;;20.50;53.10;;;;;;5050816;28;20297;-83
2022/04/21 14:24:07;;;;;;;2.10;2.00;;;20.40;54.20;;;;;;5051939;28;20269;-83
2022/04/21 14:26:36;;;;;;;2.60;2.40;;;20.40;53.80;;;;;;5051587;28;20217;-83
2022/04/21 14:29:06;;;;;;;2.42;2.22;;;20.50;54.00;;;;;;5051375;28;20213;-84
2022/04/21 14:31:34;;;;;;;2.42;2.22;;;20.50;54.00;;;;;;5051174;28;20230;-84
2022/04/21 14:34:08;;;;;;;3.15;2.45;;;20.60;54.30;;;;;;5051591;28;20214;-89
2022/04/21 14:36:48;;;;;;;4.10;2.28;;;20.60;55.10;;;;;;5052009;28;20225;-87
2022/04/21 14:44:44;;;;;;;2.85;2.65;;;20.30;55.50;;;;;;5015476;28;20238;-84
2022/04/21 14:47:12;;;;;;;2.13;1.92;;;20.10;55.10;;;;;;5051436;28;20232;-83